createdAt,value
2022-11-06T00:02:19.174Z,9.43
2022-11-06T00:04:48.152Z,12.50
2022-11-06T00:07:15.667Z,11.20
2022-11-06T00:09:46.494Z,11.57
2022-11-06T00:12:14.090Z,11.13
2022-11-06T00:14:41.475Z,10.57
2022-11-06T00:17:09.137Z,10.50
2022-11-06T00:19:36.428Z,10.60
2022-11-06T00:22:04.886Z,12.93
2022-11-06T00:24:32.123Z,12.10
2022-11-06T00:27:02.019Z,12.57
2022-11-06T00:29:29.287Z,10.33
2022-11-06T00:31:56.491Z,12.03
2022-11-06T00:34:23.859Z,11.83
2022-11-06T00:36:51.232Z,16.37
2022-11-06T00:39:18.619Z,13.80
2022-11-06T00:41:46.976Z,12.83
2022-11-06T00:44:14.266Z,15.03
2022-11-06T00:46:41.690Z,14.60
2022-11-06T00:49:09.298Z,15.47
2022-11-06T00:51:39.439Z,15.07
2022-11-06T00:54:11.354Z,14.03
2022-11-06T00:56:38.961Z,13.50
2022-11-06T00:59:10.908Z,15.00
2022-11-06T01:01:45.865Z,14.23
2022-11-06T01:04:19.853Z,13.77
2022-11-06T01:06:49.546Z,12.67
2022-11-06T01:09:20.875Z,16.43
2022-11-06T01:14:43.333Z,12.00
2022-11-06T01:17:10.810Z,11.47
2022-11-06T01:19:39.391Z,12.57
2022-11-06T01:22:06.620Z,10.13
2022-11-06T02:04:21.069Z,9.80
2022-11-06T02:06:48.871Z,9.77
2022-11-06T02:12:19.608Z,8.53
2022-11-06T02:15:05.898Z,9.73
2022-11-06T02:17:55.178Z,10.40
2022-11-06T02:20:57.034Z,8.30
2022-11-06T02:23:58.081Z,8.57
2022-11-06T02:26:59.583Z,9.17
2022-11-06T02:29:36.675Z,10.30
2022-11-06T02:32:12.213Z,8.87
2022-11-06T02:34:41.477Z,9.63
2022-11-06T02:37:14.553Z,9.77
2022-11-06T02:39:45.241Z,8.93
2022-11-06T02:42:17.105Z,9.20
2022-11-06T02:44:53.517Z,8.50
2022-11-06T02:47:24.335Z,8.30
2022-11-06T02:49:59.236Z,7.97
2022-11-06T02:52:37.818Z,7.77
2022-11-06T02:55:17.368Z,23.57
2022-11-06T02:57:50.800Z,11.03
2022-11-06T03:00:19.854Z,10.97
2022-11-06T03:06:22.940Z,9.07
2022-11-06T03:09:01.188Z,8.63
2022-11-06T03:11:32.934Z,8.00
2022-11-06T03:14:22.830Z,8.93
2022-11-06T03:17:17.629Z,10.30
2022-11-06T03:19:58.079Z,7.50
2022-11-06T03:22:40.293Z,7.63
2022-11-06T03:25:19.334Z,7.93
2022-11-06T03:28:11.258Z,6.73
2022-11-06T03:30:47.345Z,8.23
2022-11-06T03:33:38.223Z,7.93
2022-11-06T03:36:27.665Z,7.37
2022-11-06T03:39:11.305Z,7.80
2022-11-06T03:41:51.724Z,13.00
2022-11-06T03:44:24.785Z,8.63
2022-11-06T03:47:01.707Z,8.67
2022-11-06T03:49:35.099Z,7.93
2022-11-06T03:52:08.349Z,7.90
2022-11-06T03:54:50.028Z,9.47
2022-11-06T03:57:25.979Z,7.50
2022-11-06T03:59:59.423Z,7.50
2022-11-06T04:02:31.977Z,6.87
2022-11-06T04:05:05.265Z,7.93
2022-11-06T04:07:39.290Z,7.70
2022-11-06T04:10:28.937Z,7.80
2022-11-06T04:13:17.418Z,8.00
2022-11-06T04:15:52.028Z,8.43
2022-11-06T04:18:20.556Z,7.60
2022-11-06T04:21:21.899Z,7.07
2022-11-06T04:24:17.710Z,6.80
2022-11-06T04:26:58.854Z,6.70
2022-11-06T04:30:09.082Z,6.80
2022-11-06T04:32:45.226Z,7.10
2022-11-06T04:35:27.373Z,6.93
2022-11-06T04:38:03.779Z,7.73
2022-11-06T04:40:34.242Z,7.30
2022-11-06T04:43:15.018Z,6.27
2022-11-06T04:45:47.215Z,6.53
2022-11-06T04:48:16.273Z,7.83
2022-11-06T04:50:49.893Z,6.93
2022-11-06T04:53:18.510Z,7.87
2022-11-06T04:55:52.424Z,4.90
2022-11-06T04:58:20.065Z,6.17
2022-11-06T05:00:49.754Z,6.10
2022-11-06T05:03:17.987Z,7.50
2022-11-06T05:05:45.291Z,7.20
2022-11-06T05:08:16.352Z,5.83
2022-11-06T05:10:44.318Z,5.93
2022-11-06T05:13:12.355Z,5.00
2022-11-06T05:15:39.857Z,7.03
2022-11-06T05:18:07.124Z,5.83
2022-11-06T05:20:34.831Z,7.20
2022-11-06T05:23:02.350Z,6.60
2022-11-06T05:25:40.084Z,6.47
2022-11-06T05:28:08.151Z,5.97
2022-11-06T05:30:36.619Z,5.70
2022-11-06T05:33:04.239Z,7.67
2022-11-06T05:35:31.727Z,6.10
2022-11-06T05:38:00.442Z,6.17
2022-11-06T05:40:27.738Z,6.70
2022-11-06T05:42:55.007Z,6.80
2022-11-06T05:45:22.253Z,6.47
2022-11-06T05:47:49.653Z,5.83
2022-11-06T05:50:17.480Z,5.67
2022-11-06T05:52:44.793Z,5.57
2022-11-06T05:55:15.060Z,6.07
2022-11-06T05:57:43.193Z,6.50
2022-11-06T06:00:12.113Z,7.30
2022-11-06T06:02:40.312Z,7.13
2022-11-06T06:05:08.477Z,5.23
2022-11-06T06:07:35.815Z,6.00
2022-11-06T06:10:03.307Z,5.97
2022-11-06T06:12:30.874Z,5.70
2022-11-06T06:14:58.061Z,5.93
2022-11-06T06:17:25.471Z,6.40
2022-11-06T06:19:52.854Z,6.43
2022-11-06T06:22:20.049Z,6.37
2022-11-06T06:24:47.360Z,7.23
2022-11-06T06:27:14.584Z,6.03
2022-11-06T06:29:41.924Z,6.30
2022-11-06T06:32:09.126Z,5.57
2022-11-06T06:34:36.285Z,5.87
2022-11-06T06:37:03.562Z,6.17
2022-11-06T06:39:31.023Z,6.30
2022-11-06T06:41:58.729Z,7.07
2022-11-06T06:44:25.840Z,6.13
2022-11-06T06:46:53.033Z,7.27
2022-11-06T06:49:20.266Z,8.33
2022-11-06T06:51:50.837Z,7.87
2022-11-06T06:54:18.202Z,7.63
2022-11-06T06:56:45.328Z,8.27
2022-11-06T06:59:12.548Z,7.70
2022-11-06T07:01:39.897Z,12.97
2022-11-06T07:04:07.236Z,10.43
2022-11-06T07:06:34.434Z,11.17
2022-11-06T07:09:01.675Z,7.47
2022-11-06T07:11:29.121Z,7.90
2022-11-06T07:13:56.321Z,7.70
2022-11-06T07:16:25.206Z,7.93
2022-11-06T07:18:52.369Z,8.37
2022-11-06T07:21:19.527Z,11.80
2022-11-06T07:23:46.779Z,9.57
2022-11-06T07:26:13.977Z,9.60
2022-11-06T07:28:41.212Z,9.10
2022-11-06T07:31:09.530Z,9.10
2022-11-06T07:33:36.792Z,8.67
2022-11-06T07:36:09.685Z,9.10
2022-11-06T07:38:38.475Z,7.80
2022-11-06T07:41:15.939Z,9.73
2022-11-06T07:43:43.453Z,9.57
2022-11-06T07:46:12.495Z,10.13
2022-11-06T07:48:39.761Z,10.50
2022-11-06T07:51:10.148Z,8.57
2022-11-06T07:53:38.349Z,10.43
2022-11-06T07:56:05.980Z,10.00
2022-11-06T07:58:33.804Z,9.10
2022-11-06T08:01:01.419Z,9.10
2022-11-06T08:03:32.186Z,9.53
2022-11-06T08:05:59.676Z,10.70
2022-11-06T08:08:28.309Z,11.20
2022-11-06T08:10:56.322Z,10.93
2022-11-06T08:13:23.580Z,10.40
2022-11-06T08:15:50.863Z,10.60
2022-11-06T08:18:18.227Z,10.47
2022-11-06T08:20:45.418Z,12.00
2022-11-06T08:23:13.846Z,11.30
2022-11-06T08:25:41.077Z,13.70
2022-11-06T08:28:08.896Z,12.93
2022-11-06T08:30:36.105Z,12.23
2022-11-06T08:33:06.310Z,12.53
2022-11-06T08:35:37.223Z,11.90
2022-11-06T08:38:04.749Z,12.17
2022-11-06T08:40:32.760Z,11.53
2022-11-06T08:43:01.434Z,10.87
2022-11-06T08:45:29.439Z,10.13
2022-11-06T08:48:01.755Z,10.87
2022-11-06T08:50:29.734Z,10.53
2022-11-06T08:52:58.069Z,10.50
2022-11-06T08:55:25.225Z,10.50
2022-11-06T08:57:56.961Z,10.67
2022-11-06T09:00:24.553Z,10.20
2022-11-06T09:02:57.275Z,10.63
2022-11-06T09:05:24.417Z,9.23
2022-11-06T09:07:51.662Z,9.10
2022-11-06T09:10:18.935Z,8.73
2022-11-06T09:12:46.099Z,10.20
2022-11-06T09:15:13.290Z,8.60
2022-11-06T09:17:44.674Z,8.97
2022-11-06T09:20:13.415Z,9.47
2022-11-06T09:22:41.218Z,9.00
2022-11-06T09:25:09.677Z,9.67
2022-11-06T09:27:43.320Z,8.73
2022-11-06T09:30:12.822Z,8.60
2022-11-06T09:32:53.042Z,9.03
2022-11-06T09:35:23.032Z,7.83
2022-11-06T09:37:50.657Z,8.70
2022-11-06T09:40:19.898Z,8.60
2022-11-06T09:43:08.180Z,8.90
2022-11-06T09:45:39.263Z,9.10
2022-11-06T09:48:34.719Z,8.50
2022-11-06T09:51:28.994Z,8.10
2022-11-06T09:54:08.279Z,7.93
2022-11-06T09:56:38.838Z,7.40
2022-11-06T09:59:11.298Z,8.37
2022-11-06T10:01:44.935Z,6.87
2022-11-06T10:04:27.830Z,7.17
2022-11-06T10:06:55.338Z,6.97
2022-11-06T10:09:22.533Z,6.13
2022-11-06T10:12:24.431Z,6.27
2022-11-06T10:14:54.409Z,6.10
2022-11-06T10:17:49.385Z,6.43
2022-11-06T10:20:25.427Z,6.17
2022-11-06T10:23:19.465Z,6.03
2022-11-06T10:26:04.664Z,6.23
2022-11-06T10:29:03.600Z,6.30
2022-11-06T10:32:03.842Z,8.93
2022-11-06T10:34:39.142Z,6.30
2022-11-06T10:37:12.408Z,6.17
2022-11-06T10:39:41.157Z,5.90
2022-11-06T10:42:17.772Z,5.30
2022-11-06T10:44:50.304Z,5.87
2022-11-06T10:47:20.986Z,5.77
2022-11-06T10:49:59.838Z,6.60
2022-11-06T10:52:52.093Z,6.10
2022-11-06T10:55:55.542Z,6.00
2022-11-06T10:58:28.002Z,4.87
2022-11-06T11:00:59.834Z,8.43
2022-11-06T11:03:41.509Z,4.93
2022-11-06T11:06:09.247Z,5.27
2022-11-06T11:08:43.392Z,5.27
2022-11-06T11:11:20.759Z,5.00
2022-11-06T11:13:49.280Z,5.07
2022-11-06T11:16:29.749Z,5.13
2022-11-06T11:19:14.162Z,5.63
2022-11-06T11:21:56.507Z,5.40
2022-11-06T11:24:24.031Z,6.33
2022-11-06T11:26:54.217Z,8.03
2022-11-06T11:29:31.724Z,5.97
2022-11-06T11:32:05.742Z,7.00
2022-11-06T11:34:36.925Z,5.90
2022-11-06T11:37:06.690Z,6.20
2022-11-06T11:39:42.906Z,5.17
2022-11-06T11:42:30.106Z,5.00
2022-11-06T11:45:09.430Z,5.10
2022-11-06T11:47:38.681Z,4.40
2022-11-06T11:50:26.499Z,4.17
2022-11-06T11:53:09.863Z,4.70
2022-11-06T11:55:49.283Z,4.10
2022-11-06T11:58:24.817Z,4.10
2022-11-06T12:01:01.406Z,4.67
2022-11-06T12:03:34.115Z,4.63
2022-11-06T12:06:09.073Z,4.20
2022-11-06T12:08:39.118Z,3.97
2022-11-06T12:11:07.565Z,3.90
2022-11-06T12:13:34.726Z,4.20
2022-11-06T12:16:10.277Z,3.87
2022-11-06T12:18:43.796Z,3.70
2022-11-06T12:21:34.602Z,3.70
2022-11-06T12:24:12.244Z,3.80
2022-11-06T12:26:39.337Z,3.53
2022-11-06T12:29:19.280Z,3.60
2022-11-06T12:32:07.337Z,3.83
2022-11-06T12:34:34.498Z,3.63
2022-11-06T12:37:08.539Z,4.90
2022-11-06T12:39:40.470Z,3.87
2022-11-06T12:42:12.191Z,3.40
2022-11-06T12:44:39.441Z,3.60
2022-11-06T12:47:31.928Z,3.93
2022-11-06T12:50:15.539Z,3.80
2022-11-06T12:53:02.066Z,3.70
2022-11-06T12:55:37.568Z,3.93
2022-11-06T12:58:41.695Z,3.70
2022-11-06T13:01:20.670Z,3.40
2022-11-06T13:03:59.765Z,4.00
2022-11-06T13:06:58.621Z,4.80
2022-11-06T13:09:56.542Z,3.83
2022-11-06T13:12:54.829Z,4.10
2022-11-06T13:15:50.447Z,3.80
2022-11-06T13:18:28.583Z,4.10
2022-11-06T13:21:12.674Z,3.33
2022-11-06T13:23:43.988Z,3.37
2022-11-06T13:26:26.164Z,3.90
2022-11-06T13:28:57.100Z,4.03
2022-11-06T13:31:41.417Z,3.40
2022-11-06T13:34:32.090Z,3.70
2022-11-06T13:37:00.658Z,4.03
2022-11-06T13:39:46.822Z,3.60
2022-11-06T13:42:36.177Z,3.30
2022-11-06T13:45:06.679Z,3.20
2022-11-06T13:47:47.701Z,3.03
2022-11-06T13:50:44.200Z,3.00
2022-11-06T13:53:34.078Z,3.97
2022-11-06T13:56:25.821Z,3.50
2022-11-06T13:59:37.182Z,2.70
2022-11-06T14:02:26.075Z,2.60
2022-11-06T14:05:15.015Z,2.90
2022-11-06T14:07:42.928Z,3.17
2022-11-06T14:10:35.585Z,2.90
2022-11-06T14:13:03.837Z,2.80
2022-11-06T14:15:39.374Z,3.00
2022-11-06T14:18:06.775Z,2.80
2022-11-06T14:20:36.712Z,3.00
2022-11-06T14:23:28.666Z,3.20
2022-11-06T14:26:34.012Z,2.80
2022-11-06T14:29:27.472Z,3.47
2022-11-06T14:32:32.925Z,3.20
2022-11-06T14:35:29.221Z,3.10
2022-11-06T14:38:17.862Z,3.30
2022-11-06T14:40:45.470Z,3.90
2022-11-06T14:43:20.138Z,8.90
2022-11-06T14:45:54.093Z,5.03
2022-11-06T14:48:44.047Z,3.90
2022-11-06T14:51:13.463Z,4.00
2022-11-06T14:53:47.423Z,3.73
2022-11-06T14:56:26.836Z,3.90
2022-11-06T14:58:57.908Z,3.93
2022-11-06T15:01:29.405Z,4.00
2022-11-06T15:04:03.368Z,4.53
2022-11-06T15:06:33.295Z,3.73
2022-11-06T15:09:02.388Z,4.20
2022-11-06T15:11:32.545Z,4.27
2022-11-06T15:14:02.185Z,5.47
2022-11-06T15:16:40.774Z,4.37
2022-11-06T15:19:15.198Z,4.37
2022-11-06T15:22:05.894Z,4.53
2022-11-06T15:24:41.418Z,4.63
2022-11-06T15:27:15.085Z,5.47
2022-11-06T15:29:43.850Z,4.30
2022-11-06T15:32:13.522Z,5.10
2022-11-06T15:34:54.346Z,5.73
2022-11-06T15:37:27.281Z,5.07
2022-11-06T15:40:00.522Z,5.30
2022-11-06T15:42:34.878Z,5.57
2022-11-06T15:45:09.891Z,4.97
2022-11-06T15:47:37.121Z,4.87
2022-11-06T15:50:19.504Z,5.10
2022-11-06T15:52:47.997Z,4.77
2022-11-06T15:55:36.714Z,4.90
2022-11-06T15:58:14.100Z,5.20
2022-11-06T16:00:41.851Z,5.97
2022-11-06T16:03:23.409Z,11.80
2022-11-06T16:05:51.246Z,10.97
2022-11-06T16:08:19.961Z,12.13
2022-11-06T16:10:50.887Z,10.60
2022-11-06T16:13:20.301Z,11.73
2022-11-06T16:15:53.374Z,9.27
2022-11-06T16:18:35.521Z,9.00
2022-11-06T16:21:19.094Z,9.47
2022-11-06T16:23:49.246Z,7.80
2022-11-06T16:26:23.662Z,7.13
2022-11-06T16:28:53.437Z,7.27
2022-11-06T16:31:23.401Z,6.70
2022-11-06T16:34:05.907Z,7.43
2022-11-06T16:37:12.714Z,8.40
2022-11-06T16:39:49.658Z,7.30
2022-11-06T16:42:30.925Z,8.70
2022-11-06T16:45:21.955Z,8.00
2022-11-06T16:48:07.140Z,7.67
2022-11-06T16:50:47.411Z,9.47
2022-11-06T16:53:29.829Z,10.87
2022-11-06T16:56:05.836Z,30.00
2022-11-06T16:58:48.028Z,44.43
2022-11-06T17:01:20.452Z,27.00
2022-11-06T17:04:01.214Z,18.63
2022-11-06T17:06:32.237Z,12.77
2022-11-06T17:09:09.638Z,11.63
2022-11-06T17:11:38.923Z,11.83
2022-11-06T17:14:17.983Z,11.60
2022-11-06T17:16:51.250Z,11.60
2022-11-06T17:19:19.810Z,11.50
2022-11-06T17:21:48.678Z,9.90
2022-11-06T17:24:36.477Z,7.73
2022-11-06T17:27:03.847Z,11.80
2022-11-06T17:29:31.489Z,9.73
2022-11-06T17:31:58.734Z,11.17
2022-11-06T17:34:25.885Z,14.43
2022-11-06T17:36:53.135Z,17.57
2022-11-06T17:39:20.456Z,13.40
2022-11-06T17:41:47.958Z,15.20
2022-11-06T17:44:15.420Z,17.17
2022-11-06T17:46:45.342Z,19.67
2022-11-06T17:49:17.558Z,18.93
2022-11-06T17:51:52.318Z,15.50
2022-11-06T17:54:25.328Z,15.80
2022-11-06T17:56:56.806Z,18.13
2022-11-06T17:59:24.138Z,17.10
2022-11-06T18:01:52.382Z,13.20
2022-11-06T18:04:21.583Z,12.77
2022-11-06T18:06:50.907Z,14.10
2022-11-06T18:09:19.638Z,12.40
2022-11-06T18:11:50.021Z,13.67
2022-11-06T18:14:17.759Z,13.80
2022-11-06T18:16:45.091Z,14.60
2022-11-06T18:19:16.276Z,13.47
2022-11-06T18:21:43.640Z,13.77
2022-11-06T18:24:10.902Z,14.00
2022-11-06T18:26:38.191Z,15.37
2022-11-06T18:29:06.794Z,16.20
2022-11-06T18:31:34.986Z,15.53
2022-11-06T18:34:03.708Z,16.73
2022-11-06T18:36:32.933Z,18.33
2022-11-06T18:39:00.127Z,19.80
2022-11-06T18:41:27.357Z,21.80
2022-11-06T18:43:58.499Z,15.30
2022-11-06T18:46:26.917Z,14.67
2022-11-06T18:48:55.888Z,16.77
2022-11-06T18:51:35.184Z,18.47
2022-11-06T18:54:06.101Z,15.80
2022-11-06T18:56:35.850Z,15.73
2022-11-06T18:59:04.542Z,27.17
2022-11-06T19:01:34.719Z,21.67
2022-11-06T19:04:03.834Z,18.90
2022-11-06T19:06:31.269Z,22.53
2022-11-06T19:08:58.832Z,19.03
2022-11-06T19:11:26.135Z,19.20
2022-11-06T19:13:53.680Z,15.33
2022-11-06T19:16:21.174Z,14.57
2022-11-06T19:21:30.588Z,13.30
2022-11-06T19:24:04.643Z,15.70
2022-11-06T19:26:35.429Z,26.37
2022-11-06T19:29:04.134Z,33.00
2022-11-06T19:31:32.936Z,18.17
2022-11-06T19:34:01.409Z,11.63
2022-11-06T19:36:29.356Z,11.17
2022-11-06T19:38:58.359Z,11.10
2022-11-06T19:41:26.938Z,11.03
2022-11-06T19:43:54.419Z,12.30
2022-11-06T19:46:26.040Z,9.90
2022-11-06T19:48:57.054Z,19.10
2022-11-06T19:51:25.733Z,12.83
2022-11-06T19:53:53.945Z,11.03
2022-11-06T19:56:22.004Z,9.03
2022-11-06T19:58:50.844Z,8.13
2022-11-06T20:01:19.462Z,9.43
2022-11-06T20:03:47.335Z,8.37
2022-11-06T20:06:15.066Z,8.30
2022-11-06T20:08:42.398Z,8.60
2022-11-06T20:11:14.065Z,8.10
2022-11-06T20:13:42.142Z,8.30
2022-11-06T20:16:19.138Z,8.07
2022-11-06T20:18:57.486Z,7.63
2022-11-06T20:21:29.212Z,6.80
2022-11-06T20:23:57.307Z,7.83
2022-11-06T20:26:24.694Z,7.00
2022-11-06T20:28:52.090Z,7.90
2022-11-06T20:31:19.954Z,7.60
2022-11-06T20:33:47.788Z,8.27
2022-11-06T20:36:35.769Z,8.17
2022-11-06T20:39:03.855Z,7.93
2022-11-06T20:41:31.682Z,8.63
2022-11-06T20:43:58.955Z,12.67
2022-11-06T20:46:26.222Z,13.13
2022-11-06T20:48:53.481Z,14.40
2022-11-06T20:51:24.115Z,14.67
2022-11-06T20:53:51.531Z,11.33
2022-11-06T20:56:20.618Z,8.50
2022-11-06T20:58:48.342Z,8.30
2022-11-06T21:01:21.220Z,7.77
2022-11-06T21:03:49.819Z,7.40
2022-11-06T21:06:18.818Z,7.67
2022-11-06T21:08:46.324Z,7.60
2022-11-06T21:11:20.936Z,7.07
2022-11-06T21:13:50.247Z,6.83
2022-11-06T21:16:37.983Z,7.10
2022-11-06T21:19:06.290Z,11.27
2022-11-06T21:21:37.062Z,7.20
2022-11-06T21:24:05.799Z,6.83
2022-11-06T21:26:36.168Z,6.73
2022-11-06T21:29:06.559Z,5.77
2022-11-06T21:31:34.575Z,3.67
2022-11-06T21:34:03.766Z,3.13
2022-11-06T21:36:37.118Z,3.20
2022-11-06T21:39:10.440Z,2.50
2022-11-06T21:41:38.491Z,2.63
2022-11-06T21:44:07.134Z,3.30
2022-11-06T21:46:34.654Z,2.37
2022-11-06T21:49:02.053Z,2.50
2022-11-06T21:51:31.670Z,2.40
2022-11-06T21:54:17.670Z,3.90
2022-11-06T21:56:47.908Z,2.23
2022-11-06T21:59:17.551Z,2.07
2022-11-06T22:01:45.271Z,3.07
2022-11-06T22:04:13.060Z,2.63
2022-11-06T22:06:43.578Z,1.80
2022-11-06T22:09:12.876Z,2.17
2022-11-06T22:11:44.014Z,3.90
2022-11-06T22:14:14.149Z,2.43
2022-11-06T22:16:43.580Z,1.60
2022-11-06T22:19:10.947Z,1.53
2022-11-06T22:21:40.175Z,1.50
2022-11-06T22:24:08.667Z,2.00
2022-11-06T22:26:36.333Z,1.80
2022-11-06T22:29:25.930Z,1.70
2022-11-06T22:46:28.109Z,3.07
2022-11-06T22:49:05.254Z,1.70
2022-11-06T22:51:33.526Z,1.80
2022-11-06T22:54:07.076Z,1.70
2022-11-06T23:11:17.445Z,2.80
2022-11-06T23:14:14.255Z,2.03
2022-11-06T23:17:07.695Z,2.00
2022-11-06T23:50:01.223Z,2.37
2022-11-06T23:52:28.648Z,2.73
2022-11-06T23:54:58.236Z,2.00
2022-11-06T23:57:25.934Z,1.90
2022-11-06T23:59:56.102Z,2.27
